Time;durP1;ratioP1;P1;durP2;ratioP2;P2;SDS_P1;SDS_P2;PMS_P1;PMS_P2;Temp;Humidity;BMP_temperature;BMP_pressure;BME280_temperature;BME280_humidity;BME280_pressure;Samples;Min_cycle;Max_cycle;Signal;HPM_P1;HPM_P2
2022/04/11 00:01:15;;;;;;;4.10;2.90;;;;;;;4.05;80.90;95815.72;4335827;32;20347;-52
2022/04/11 00:03:42;;;;;;;3.03;2.83;;;;;;;4.32;79.28;95807.97;4348697;32;20189;-54
2022/04/11 00:06:07;;;;;;;4.23;3.40;;;;;;;4.06;80.04;95812.06;4326892;32;20281;-52
2022/04/11 00:08:35;;;;;;;3.00;2.80;;;;;;;4.09;79.87;95806.31;4326266;32;20379;-55
2022/04/11 00:11:02;;;;;;;3.30;3.07;;;;;;;4.10;79.91;95805.28;4358790;32;20288;-53
2022/04/11 00:13:28;;;;;;;3.37;3.10;;;;;;;3.98;79.75;95798.53;4326538;32;20281;-51
2022/04/11 00:15:59;;;;;;;3.57;3.27;;;;;;;4.03;79.52;95794.16;4321525;32;20285;-54
2022/04/11 00:18:25;;;;;;;2.70;2.50;;;;;;;4.20;78.74;95793.34;4359430;32;20297;-53
2022/04/11 00:20:52;;;;;;;2.93;2.73;;;;;;;4.33;77.95;95790.38;4337192;32;20286;-52
2022/04/11 00:23:20;;;;;;;3.77;3.13;;;;;;;3.86;79.46;95785.50;4349762;32;20224;-52
2022/04/11 00:25:46;;;;;;;3.10;2.90;;;;;;;3.69;80.18;95788.13;4307477;32;20290;-53
2022/04/11 00:28:13;;;;;;;2.90;2.70;;;;;;;3.42;81.80;95790.56;4357554;32;20334;-53
2022/04/11 00:30:43;;;;;;;2.83;2.67;;;;;;;3.59;81.13;95787.16;4351174;32;20285;-52
2022/04/11 00:33:14;;;;;;;3.03;2.73;;;;;;;3.89;79.85;95787.66;4352887;32;20301;-54
2022/04/11 00:35:39;;;;;;;2.90;2.70;;;;;;;4.03;79.60;95777.59;4356020;32;20297;-53
2022/04/11 00:38:06;;;;;;;2.63;2.43;;;;;;;3.88;78.99;95786.06;4337009;32;20375;-53
2022/04/11 00:40:33;;;;;;;4.73;2.57;;;;;;;3.98;78.66;95783.56;4345999;32;20185;-53
2022/04/11 00:42:59;;;;;;;3.83;2.60;;;;;;;3.93;79.08;95791.38;4327810;32;20316;-51
2022/04/11 00:45:24;;;;;;;2.80;2.60;;;;;;;3.89;79.16;95785.03;4335984;32;20288;-55
2022/04/11 00:47:50;;;;;;;2.63;2.50;;;;;;;3.98;78.61;95788.81;4347605;32;20379;-55
2022/04/11 00:50:15;;;;;;;2.83;2.53;;;;;;;4.13;78.02;95788.28;4366651;32;20192;-52
2022/04/11 00:52:45;;;;;;;2.60;2.40;;;;;;;3.97;78.33;95795.09;4346146;32;20190;-54
2022/04/11 00:55:13;;;;;;;2.60;2.40;;;;;;;3.75;79.00;95783.72;4353675;32;20208;-53
2022/04/11 00:57:39;;;;;;;2.70;2.60;;;;;;;3.94;78.38;95787.72;4360874;32;20299;-53
2022/04/11 01:00:07;;;;;;;3.93;2.50;;;;;;;3.67;79.03;95790.19;4346263;32;20308;-52
2022/04/11 01:02:33;;;;;;;2.40;2.20;;;;;;;3.96;78.49;95787.47;4340692;32;20303;-55
2022/04/11 01:04:58;;;;;;;2.77;2.60;;;;;;;3.89;78.51;95787.66;4336766;32;20286;-51
2022/04/11 01:07:23;;;;;;;3.20;2.50;;;;;;;3.88;78.78;95788.69;4332593;32;20252;-53
2022/04/11 01:09:49;;;;;;;2.80;2.40;;;;;;;3.75;78.80;95786.34;4332456;32;20213;-55
2022/04/11 01:12:15;;;;;;;2.57;2.30;;;;;;;3.74;78.90;95787.41;4348750;32;20188;-49
2022/04/11 01:14:42;;;;;;;2.53;2.43;;;;;;;4.06;77.77;95780.56;4354061;32;20209;-52
2022/04/11 01:17:08;;;;;;;2.73;2.47;;;;;;;3.90;78.21;95786.63;4355170;32;20285;-55
2022/04/11 01:19:33;;;;;;;3.10;2.90;;;;;;;3.93;77.73;95782.72;4358170;32;20377;-55
2022/04/11 01:21:59;;;;;;;2.57;2.27;;;;;;;3.81;78.38;95788.03;4352571;32;20327;-53
2022/04/11 01:24:25;;;;;;;2.90;2.70;;;;;;;3.91;78.04;95767.22;4357162;32;20251;-49
2022/04/11 01:26:51;;;;;;;2.30;2.10;;;;;;;3.82;78.29;95784.38;4358231;32;20243;-51
2022/04/11 01:29:17;;;;;;;2.77;2.57;;;;;;;3.87;78.45;95788.91;4346934;32;20301;-53
2022/04/11 01:31:43;;;;;;;2.30;2.10;;;;;;;3.83;78.20;95783.34;4360891;32;20197;-52
2022/04/11 01:34:08;;;;;;;2.60;2.40;;;;;;;3.54;78.98;95787.84;4362715;32;20348;-54
2022/04/11 01:36:34;;;;;;;2.50;2.07;;;;;;;3.50;79.53;95783.34;4358987;32;20193;-51
2022/04/11 01:38:59;;;;;;;2.57;2.37;;;;;;;3.51;79.41;95782.31;4347117;32;20207;-48
2022/04/11 01:41:24;;;;;;;2.33;2.23;;;;;;;3.27;80.36;95777.19;4372182;32;20201;-49
2022/04/11 01:43:50;;;;;;;2.40;2.30;;;;;;;3.40;80.48;95776.09;4350322;32;20255;-50
2022/04/11 01:46:15;;;;;;;2.53;2.40;;;;;;;3.57;79.62;95781.34;4368021;32;20272;-52
2022/04/11 01:48:41;;;;;;;2.30;2.07;;;;;;;3.59;79.73;95774.03;4360429;32;20189;-63
2022/04/11 01:51:06;;;;;;;3.50;2.43;;;;;;;3.25;80.67;95781.06;4357461;32;20193;-55
2022/04/11 01:53:31;;;;;;;2.33;2.20;;;;;;;3.35;80.31;95779.41;4353340;32;20189;-52
2022/04/11 01:55:58;;;;;;;2.57;2.40;;;;;;;3.64;79.69;95788.03;4349072;32;20228;-52
2022/04/11 01:58:23;;;;;;;2.40;2.30;;;;;;;3.72;78.95;95771.91;4359196;32;20185;-50
2022/04/11 02:00:48;;;;;;;2.60;2.40;;;;;;;3.68;79.05;95768.16;4363463;32;20292;-52
2022/04/11 02:03:14;;;;;;;2.53;2.20;;;;;;;3.60;78.99;95776.44;4347278;32;20199;-50
2022/04/11 02:05:41;;;;;;;2.20;2.00;;;;;;;3.65;78.91;95775.72;4338963;32;20225;-50
2022/04/11 02:08:07;;;;;;;3.17;2.67;;;;;;;3.74;78.86;95771.69;4345224;33;20208;-51
2022/04/11 02:10:36;;;;;;;2.47;2.27;;;;;;;3.72;78.78;95763.25;4349155;32;20333;-51
2022/04/11 02:13:03;;;;;;;2.60;2.40;;;;;;;3.73;78.40;95767.47;4334457;32;20297;-51
2022/04/11 02:15:28;;;;;;;2.40;2.30;;;;;;;3.62;79.11;95769.13;4358124;32;20406;-51
2022/04/11 02:17:53;;;;;;;2.50;2.30;;;;;;;3.69;78.63;95764.53;4363639;32;20300;-52
2022/04/11 02:20:19;;;;;;;2.17;1.97;;;;;;;3.71;78.67;95759.03;4363996;32;20200;-52
2022/04/11 02:22:55;;;;;;;2.40;2.20;;;;;;;3.56;79.04;95750.91;4367118;32;20184;-52
2022/04/11 02:25:28;;;;;;;2.60;2.40;;;;;;;3.53;78.99;95751.41;4358506;32;20264;-51
2022/04/11 02:27:55;;;;;;;2.40;2.20;;;;;;;3.81;78.10;95743.44;4359533;32;20394;-53
2022/04/11 02:30:22;;;;;;;2.67;2.47;;;;;;;3.79;77.37;95742.88;4360661;32;20289;-51
2022/04/11 02:32:49;;;;;;;2.37;2.17;;;;;;;3.48;78.67;95740.81;4340560;32;20335;-51
2022/04/11 02:35:14;;;;;;;2.33;2.00;;;;;;;3.74;77.95;95735.72;4359340;32;20285;-55
2022/04/11 02:37:40;;;;;;;2.87;2.30;;;;;;;3.90;77.30;95735.97;4360413;32;20319;-52
2022/04/11 02:40:07;;;;;;;2.00;1.90;;;;;;;3.85;77.35;95735.88;4349051;32;20252;-48
2022/04/11 02:42:33;;;;;;;1.90;1.80;;;;;;;3.67;77.77;95742.19;4368159;32;20200;-51
2022/04/11 02:44:58;;;;;;;2.70;2.07;;;;;;;3.77;77.62;95734.44;4347683;32;20329;-52
2022/04/11 02:47:24;;;;;;;2.43;2.23;;;;;;;3.71;77.77;95735.44;4372884;32;20289;-54
2022/04/11 02:49:49;;;;;;;2.00;1.90;;;;;;;3.66;77.80;95735.34;4358969;32;20193;-50
2022/04/11 02:52:15;;;;;;;2.30;2.20;;;;;;;3.56;78.16;95724.69;4349634;32;20207;-51
2022/04/11 02:54:41;;;;;;;3.57;2.00;;;;;;;3.60;77.85;95734.47;4360946;32;20185;-50
2022/04/11 02:57:07;;;;;;;2.10;2.00;;;;;;;3.40;78.44;95728.91;4365478;32;20197;-50
2022/04/11 02:59:33;;;;;;;2.00;1.90;;;;;;;3.61;78.26;95735.25;4350917;32;20228;-52
2022/04/11 03:01:59;;;;;;;2.43;2.23;;;;;;;3.51;78.17;95724.63;4355942;32;20300;-50
2022/04/11 03:04:24;;;;;;;2.43;2.00;;;;;;;3.46;78.58;95720.09;4355877;32;20286;-53
2022/04/11 03:06:50;;;;;;;2.27;2.07;;;;;;;3.35;79.22;95713.88;4354190;32;20245;-54
2022/04/11 03:09:15;;;;;;;1.80;1.70;;;;;;;3.15;79.78;95710.91;4361568;32;20226;-51
2022/04/11 03:11:40;;;;;;;3.53;2.10;;;;;;;3.01;80.43;95715.66;4367182;32;20192;-53
2022/04/11 03:14:06;;;;;;;1.87;1.77;;;;;;;2.94;80.69;95720.25;4362759;32;20201;-54
2022/04/11 03:16:31;;;;;;;1.97;1.80;;;;;;;3.29;79.61;95720.09;4365274;32;20292;-54
2022/04/11 03:18:57;;;;;;;2.30;2.10;;;;;;;3.42;79.01;95717.13;4362262;32;20206;-54
2022/04/11 03:21:22;;;;;;;1.80;1.70;;;;;;;3.41;78.79;95712.94;4365217;32;20208;-52
2022/04/11 03:23:47;;;;;;;2.10;2.00;;;;;;;3.36;78.75;95712.03;4358864;32;20292;-52
2022/04/11 03:26:13;;;;;;;2.30;2.20;;;;;;;3.12;79.81;95714.81;4359998;32;20260;-53
2022/04/11 03:28:38;;;;;;;1.53;1.43;;;;;;;3.29;79.51;95711.41;4360898;32;20230;-51
2022/04/11 03:31:06;;;;;;;3.13;2.10;;;;;;;3.11;79.49;95715.06;4359758;32;20188;-50
2022/04/11 03:33:32;;;;;;;2.17;1.60;;;;;;;3.32;79.52;95710.94;4362237;32;20320;-52
2022/04/11 03:35:57;;;;;;;1.77;1.67;;;;;;;3.30;78.95;95708.56;4357480;32;20342;-53
2022/04/11 03:38:22;;;;;;;4.57;2.00;;;;;;;3.44;78.34;95711.66;4358560;32;20189;-55
2022/04/11 03:40:48;;;;;;;2.10;1.97;;;;;;;3.25;78.48;95703.22;4362114;32;20240;-53
2022/04/11 03:43:13;;;;;;;1.80;1.70;;;;;;;2.80;80.43;95707.69;4358296;32;20198;-52
2022/04/11 03:45:38;;;;;;;2.73;1.90;;;;;;;2.74;81.63;95706.78;4355987;32;20327;-53
2022/04/11 03:48:04;;;;;;;2.03;1.90;;;;;;;2.96;80.32;95714.78;4359155;32;20192;-53
2022/04/11 03:50:30;;;;;;;1.60;1.50;;;;;;;2.84;80.70;95703.56;4347696;32;20208;-53
2022/04/11 03:52:55;;;;;;;1.97;1.77;;;;;;;2.74;80.96;95710.19;4360881;32;20288;-51
2022/04/11 03:55:20;;;;;;;2.10;2.00;;;;;;;2.83;81.22;95707.22;4352954;32;20250;-55
2022/04/11 03:57:46;;;;;;;2.10;2.00;;;;;;;2.69;81.41;95702.28;4335634;32;20215;-53
2022/04/11 04:00:12;;;;;;;2.77;1.97;;;;;;;3.02;80.50;95705.97;4338425;32;20272;-63
2022/04/11 04:02:37;;;;;;;1.83;1.73;;;;;;;2.96;80.33;95699.84;4370290;32;20178;-53
2022/04/11 04:05:02;;;;;;;1.70;1.60;;;;;;;3.14;79.94;95696.22;4357691;32;20297;-54
2022/04/11 04:07:28;;;;;;;1.90;1.80;;;;;;;2.98;80.08;95689.13;4363754;32;20237;-51
2022/04/11 04:09:53;;;;;;;1.70;1.60;;;;;;;2.90;80.54;95685.09;4358237;32;20205;-52
2022/04/11 04:12:20;;;;;;;2.00;1.90;;;;;;;3.06;80.21;95691.38;4358881;32;20221;-53
2022/04/11 04:14:46;;;;;;;1.77;1.67;;;;;;;2.88;80.39;95688.97;4355212;32;20185;-51
2022/04/11 04:17:12;;;;;;;2.20;2.03;;;;;;;2.72;80.97;95683.44;4360535;32;20340;-56
2022/04/11 04:19:37;;;;;;;2.63;2.13;;;;;;;2.81;80.98;95686.50;4361456;32;20231;-52
2022/04/11 04:22:03;;;;;;;2.03;1.93;;;;;;;2.86;80.65;95677.94;4346423;32;20192;-50
2022/04/11 04:24:28;;;;;;;1.97;1.87;;;;;;;3.12;79.90;95674.69;4359220;32;20286;-50
2022/04/11 04:26:53;;;;;;;1.60;1.50;;;;;;;3.15;79.72;95674.22;4362256;32;20212;-54
2022/04/11 04:29:20;;;;;;;2.53;1.77;;;;;;;3.37;78.58;95667.22;4362198;32;20189;-53
2022/04/11 04:31:47;;;;;;;1.57;1.43;;;;;;;3.51;77.99;95661.69;4363892;32;20243;-54
2022/04/11 04:34:13;;;;;;;1.50;1.40;;;;;;;3.49;77.70;95659.31;4361115;32;20330;-55
2022/04/11 04:36:38;;;;;;;1.77;1.67;;;;;;;3.63;76.54;95651.88;4361761;32;20285;-54
2022/04/11 04:39:04;;;;;;;1.70;1.60;;;;;;;3.71;76.38;95657.53;4361784;32;20197;-52
2022/04/11 04:41:29;;;;;;;1.60;1.50;;;;;;;3.76;76.03;95652.31;4347946;32;20259;-55
2022/04/11 04:43:54;;;;;;;2.07;1.70;;;;;;;3.79;75.68;95648.41;4360204;32;20265;-55
2022/04/11 04:46:20;;;;;;;1.50;1.40;;;;;;;3.80;75.66;95656.06;4365057;32;20209;-53
2022/04/11 04:48:45;;;;;;;1.10;1.10;;;;;;;3.85;75.57;95665.03;4347456;32;20229;-52
2022/04/11 04:51:10;;;;;;;1.93;1.80;;;;;;;3.71;76.24;95659.34;4363487;32;20193;-55
2022/04/11 04:53:36;;;;;;;2.50;1.67;;;;;;;3.54;76.75;95654.09;4361958;32;20193;-53
2022/04/11 04:56:04;;;;;;;4.43;1.70;;;;;;;3.48;77.08;95656.91;4346050;32;20272;-51
2022/04/11 04:58:29;;;;;;;1.93;1.83;;;;;;;3.48;77.17;95662.16;4356107;32;20280;-54
2022/04/11 05:00:54;;;;;;;2.87;1.80;;;;;;;3.47;77.63;95657.94;4359905;32;20281;-53
2022/04/11 05:03:20;;;;;;;1.73;1.63;;;;;;;3.45;77.98;95656.34;4359852;32;20260;-53
2022/04/11 05:05:45;;;;;;;2.23;2.03;;;;;;;3.54;77.71;95653.31;4351584;32;20260;-53
2022/04/11 05:08:10;;;;;;;2.30;2.17;;;;;;;3.70;76.66;95647.25;4352598;32;20186;-50
2022/04/11 05:10:36;;;;;;;1.90;1.80;;;;;;;3.69;76.57;95645.69;4348318;32;20185;-52
2022/04/11 05:13:01;;;;;;;3.43;1.93;;;;;;;3.75;76.35;95652.56;4345467;32;20252;-52
2022/04/11 05:15:26;;;;;;;2.37;2.17;;;;;;;3.76;77.06;95648.91;4360278;32;20193;-51
2022/04/11 05:17:53;;;;;;;4.80;1.97;;;;;;;3.83;76.74;95652.16;4349557;32;20270;-53
2022/04/11 05:20:19;;;;;;;2.20;2.00;;;;;;;3.84;76.48;95656.37;4359594;32;20235;-52
2022/04/11 05:22:44;;;;;;;2.50;2.23;;;;;;;4.00;76.21;95645.03;4357100;32;20368;-51
2022/04/11 05:25:10;;;;;;;2.23;2.03;;;;;;;4.06;76.21;95645.88;4361650;32;20197;-54
2022/04/11 05:27:35;;;;;;;2.77;2.30;;;;;;;4.08;75.57;95639.38;4357464;32;20314;-52
2022/04/11 05:30:01;;;;;;;6.17;2.27;;;;;;;4.23;74.91;95638.75;4353000;32;20189;-51
2022/04/11 05:32:26;;;;;;;2.20;2.00;;;;;;;4.27;75.15;95633.78;4354668;32;20201;-53
2022/04/11 05:34:51;;;;;;;2.13;1.93;;;;;;;4.17;74.88;95638.91;4358967;32;20240;-52
2022/04/11 05:37:17;;;;;;;2.00;1.90;;;;;;;4.19;74.54;95635.00;4361698;32;20238;-53
2022/04/11 05:39:42;;;;;;;2.07;1.90;;;;;;;4.19;74.64;95635.00;4359608;32;20219;-51
2022/04/11 05:42:08;;;;;;;2.63;2.10;;;;;;;4.13;74.81;95634.19;4346170;32;20256;-53
2022/04/11 05:44:33;;;;;;;2.10;2.00;;;;;;;4.17;74.82;95633.66;4349652;32;20204;-52
2022/04/11 05:46:59;;;;;;;2.43;1.70;;;;;;;4.32;74.44;95641.75;4356573;32;20258;-51
2022/04/11 05:49:24;;;;;;;2.30;1.70;;;;;;;4.32;74.36;95637.28;4359903;32;20263;-52
2022/04/11 05:51:50;;;;;;;2.10;2.00;;;;;;;4.47;73.83;95639.28;4356980;32;20224;-53
2022/04/11 05:54:15;;;;;;;1.70;1.60;;;;;;;4.49;73.49;95637.19;4359010;32;20197;-50
2022/04/11 05:56:41;;;;;;;1.77;1.67;;;;;;;4.46;73.47;95648.19;4360015;32;20200;-50
2022/04/11 05:59:08;;;;;;;1.97;1.87;;;;;;;4.60;72.83;95640.72;4359589;32;20201;-54
2022/04/11 06:01:34;;;;;;;3.33;1.80;;;;;;;4.52;73.21;95647.22;4359908;32;20203;-52
2022/04/11 06:04:00;;;;;;;1.93;1.83;;;;;;;4.40;72.92;95644.72;4361391;32;20343;-55
2022/04/11 06:06:25;;;;;;;3.50;1.87;;;;;;;4.22;73.70;95647.66;4346651;32;20293;-53
2022/04/11 06:08:51;;;;;;;1.83;1.73;;;;;;;4.17;73.52;95644.16;4360390;32;20190;-51
2022/04/11 06:11:16;;;;;;;1.77;1.67;;;;;;;4.29;73.44;95652.72;4349249;32;20294;-52
2022/04/11 06:13:43;;;;;;;2.40;2.20;;;;;;;4.40;73.29;95649.16;4353952;32;20189;-56
2022/04/11 06:16:09;;;;;;;2.13;2.00;;;;;;;4.48;73.20;95651.38;4356399;32;20189;-49
2022/04/11 06:18:34;;;;;;;1.93;1.83;;;;;;;4.48;73.13;95651.38;4364137;32;20344;-52
2022/04/11 06:21:00;;;;;;;1.83;1.70;;;;;;;4.24;73.46;95650.03;4359177;32;20273;-55
2022/04/11 06:23:25;;;;;;;4.23;1.97;;;;;;;5.64;86.23;95634.97;4348000;32;20205;-56
2022/04/11 06:25:50;;;;;;;2.10;2.00;;;;;;;6.24;84.99;95636.34;4354768;32;20201;-52
2022/04/11 06:28:16;;;;;;;2.97;2.30;;;;;;;6.77;83.35;95630.72;4360909;32;20197;-52
2022/04/11 06:30:41;;;;;;;2.10;1.90;;;;;;;7.18;82.26;95634.19;4360282;32;20200;-55
2022/04/11 06:33:06;;;;;;;3.47;1.77;;;;;;;7.31;80.36;95637.34;4345869;32;20245;-55
2022/04/11 06:35:32;;;;;;;1.57;1.47;;;;;;;7.45;75.63;95639.22;4352889;32;20311;-55
2022/04/11 06:37:57;;;;;;;1.60;1.50;;;;;;;7.77;79.35;95638.09;4352943;32;20181;-54
2022/04/11 06:40:22;;;;;;;1.80;1.70;;;;;;;7.79;75.86;95644.69;4352177;32;20256;-56
2022/04/11 06:42:48;;;;;;;5.17;1.80;;;;;;;7.65;72.26;95646.31;4363197;32;20212;-57
2022/04/11 06:45:14;;;;;;;2.37;1.80;;;;;;;8.01;74.93;95644.38;4354284;32;20193;-56
2022/04/11 06:47:40;;;;;;;1.90;1.67;;;;;;;7.96;72.57;95648.87;4362672;32;20200;-56
2022/04/11 06:50:06;;;;;;;2.40;2.27;;;;;;;8.24;73.87;95649.06;4354842;32;20273;-54
2022/04/11 06:52:31;;;;;;;3.90;1.87;;;;;;;7.89;69.95;95646.53;4365683;32;20262;-57
2022/04/11 06:54:56;;;;;;;2.20;1.67;;;;;;;8.13;71.78;95636.16;4361485;32;20188;-53
2022/04/11 06:57:23;;;;;;;2.00;1.90;;;;;;;8.31;73.37;95640.87;4347773;32;20232;-56
2022/04/11 06:59:49;;;;;;;3.10;2.13;;;;;;;8.58;70.31;95643.13;4357884;32;20277;-58
2022/04/11 07:02:14;;;;;;;2.23;1.90;;;;;;;8.33;70.00;95635.31;4361465;32;20299;-56
2022/04/11 07:04:40;;;;;;;1.70;1.60;;;;;;;8.49;71.57;95634.19;4352116;32;20204;-54
2022/04/11 07:07:05;;;;;;;1.73;1.63;;;;;;;8.57;70.79;95630.97;4348987;32;20185;-55
2022/04/11 07:09:31;;;;;;;1.60;1.50;;;;;;;8.48;68.70;95635.25;4369281;32;20193;-53
2022/04/11 07:11:57;;;;;;;2.20;1.90;;;;;;;8.33;68.73;95635.31;4364785;32;20181;-53
2022/04/11 07:14:22;;;;;;;3.20;3.00;;;;;;;8.36;68.48;95640.06;4362268;32;20186;-53
2022/04/11 07:16:48;;;;;;;2.37;1.80;;;;;;;8.48;66.57;95632.63;4348237;32;20239;-56
2022/04/11 07:19:14;;;;;;;1.83;1.73;;;;;;;8.43;70.31;95638.72;4341669;32;20197;-55
2022/04/11 07:21:39;;;;;;;2.10;1.90;;;;;;;8.69;68.07;95644.69;4350746;32;20304;-55
2022/04/11 07:24:05;;;;;;;1.90;1.80;;;;;;;8.80;66.89;95637.47;4331877;32;20263;-54
2022/04/11 07:26:30;;;;;;;3.50;2.10;;;;;;;8.77;67.88;95641.44;4345079;32;20264;-55
2022/04/11 07:28:56;;;;;;;15.03;2.37;;;;;;;8.96;66.97;95641.59;4357814;32;20200;-56
2022/04/11 07:31:21;;;;;;;8.47;2.10;;;;;;;8.76;63.61;95634.56;4351733;32;20346;-57
2022/04/11 07:33:49;;;;;;;9.30;2.63;;;;;;;8.85;69.46;95640.09;4367880;32;20198;-57
2022/04/11 07:36:14;;;;;;;4.23;2.00;;;;;;;8.71;66.36;95639.13;4365987;32;20235;-54
2022/04/11 07:38:40;;;;;;;10.70;2.17;;;;;;;9.18;64.69;95630.59;4356495;32;20293;-55
2022/04/11 07:41:05;;;;;;;2.03;1.93;;;;;;;9.37;62.49;95638.63;4371335;32;20196;-55
2022/04/11 07:43:31;;;;;;;2.00;1.80;;;;;;;8.72;58.03;95638.84;4359594;32;20260;-58
2022/04/11 07:45:56;;;;;;;2.83;1.70;;;;;;;8.26;57.54;95646.97;4361329;32;20193;-55
2022/04/11 07:48:21;;;;;;;1.97;1.87;;;;;;;7.83;58.44;95645.75;4365657;32;20208;-56
2022/04/11 07:50:47;;;;;;;1.97;1.87;;;;;;;7.67;59.61;95638.12;4364822;32;20201;-56
2022/04/11 07:53:12;;;;;;;2.50;2.03;;;;;;;7.65;60.03;95645.53;4367282;32;20317;-57
2022/04/11 07:55:38;;;;;;;2.30;1.97;;;;;;;7.61;61.04;95655.03;4365284;32;20201;-58
2022/04/11 07:58:03;;;;;;;1.90;1.80;;;;;;;7.62;60.14;95651.34;4364851;32;20232;-54
2022/04/11 08:00:28;;;;;;;3.17;2.70;;;;;;;7.55;60.32;95644.47;4347872;32;20256;-54
2022/04/11 08:02:55;;;;;;;2.60;2.40;;;;;;;7.48;61.53;95651.84;4365709;32;20181;-57
2022/04/11 08:05:22;;;;;;;1.90;1.80;;;;;;;7.65;60.03;95645.53;4368487;32;20205;-53
2022/04/11 08:07:49;;;;;;;3.13;2.40;;;;;;;7.69;59.33;95644.72;4347257;32;20285;-55
2022/04/11 08:10:17;;;;;;;2.90;2.20;;;;;;;7.60;59.41;95651.59;4341547;32;20276;-54
2022/04/11 08:12:57;;;;;;;2.60;2.40;;;;;;;7.61;59.67;95647.91;4355674;32;20418;-55
2022/04/11 08:15:28;;;;;;;2.63;2.43;;;;;;;7.79;58.85;95651.84;4347114;32;20285;-56
2022/04/11 08:17:55;;;;;;;2.97;2.60;;;;;;;7.89;59.52;95651.81;4351098;32;20373;-54
2022/04/11 08:20:25;;;;;;;2.60;2.40;;;;;;;7.87;59.03;95651.31;4353377;32;20312;-53
2022/04/11 08:22:54;;;;;;;2.50;2.30;;;;;;;8.03;58.39;95652.03;4314055;32;20345;-57
2022/04/11 08:25:20;;;;;;;3.63;2.40;;;;;;;8.02;57.60;95648.63;4355110;32;20299;-55
2022/04/11 08:27:47;;;;;;;2.13;1.93;;;;;;;7.96;57.06;95640.97;4348945;32;20278;-53
2022/04/11 08:30:13;;;;;;;2.20;2.10;;;;;;;8.00;57.88;95640.16;4338304;32;20355;-59
2022/04/11 08:32:47;;;;;;;2.40;2.00;;;;;;;8.01;57.90;95643.59;4355520;32;20304;-58
2022/04/11 08:35:13;;;;;;;2.37;2.17;;;;;;;8.07;57.21;95642.53;4333469;32;20544;-54
2022/04/11 08:37:42;;;;;;;3.63;2.00;;;;;;;7.97;57.80;95643.34;4331637;32;20308;-58
2022/04/11 08:40:20;;;;;;;2.97;2.00;;;;;;;8.05;57.02;95640.16;4324696;32;20395;-55
2022/04/11 08:42:51;;;;;;;2.07;1.97;;;;;;;8.11;57.07;95632.97;4324327;32;20278;-57
2022/04/11 08:45:21;;;;;;;2.00;1.90;;;;;;;8.28;57.92;95628.19;4337860;32;20296;-56
2022/04/11 08:47:50;;;;;;;2.37;1.80;;;;;;;8.29;56.99;95621.84;4327406;32;20301;-58
2022/04/11 08:50:18;;;;;;;1.80;1.70;;;;;;;8.40;56.02;95625.25;4360439;32;20348;-60
2022/04/11 08:52:44;;;;;;;2.10;2.00;;;;;;;8.36;54.82;95617.06;4343770;32;20297;-56
2022/04/11 08:55:11;;;;;;;1.80;1.70;;;;;;;8.33;54.47;95608.88;4345160;32;20329;-56
2022/04/11 08:57:38;;;;;;;2.33;1.93;;;;;;;8.51;54.32;95610.94;4341045;32;20293;-54
2022/04/11 09:00:19;;;;;;;2.07;1.70;;;;;;;8.58;53.49;95617.47;4350962;32;20289;-55
2022/04/11 09:02:46;;;;;;;1.70;1.60;;;;;;;8.58;54.07;95612.19;4313991;32;20290;-58
2022/04/11 09:05:20;;;;;;;2.20;1.93;;;;;;;8.67;53.59;95614.28;4338619;32;20299;-61
2022/04/11 09:07:57;;;;;;;1.97;1.83;;;;;;;8.69;54.18;95612.94;4330827;32;20312;-56
2022/04/11 09:10:38;;;;;;;1.77;1.67;;;;;;;8.78;53.64;95615.78;4344047;32;20288;-58
2022/04/11 09:13:09;;;;;;;2.00;1.80;;;;;;;8.93;53.38;95616.50;4356719;32;20289;-56
2022/04/11 09:15:44;;;;;;;6.67;2.57;;;;;;;9.05;52.92;95610.84;4353949;32;20289;-57
2022/04/11 09:18:11;;;;;;;2.13;1.90;;;;;;;9.19;57.83;95611.00;4361494;32;20391;-58
2022/04/11 09:20:42;;;;;;;2.30;2.20;;;;;;;9.37;54.83;95607.66;4322999;32;20312;-56
2022/04/11 09:23:22;;;;;;;1.77;1.67;;;;;;;9.46;52.13;95600.72;4350886;32;20353;-58
2022/04/11 09:25:51;;;;;;;1.77;1.60;;;;;;;9.45;51.32;95601.78;4347900;32;20304;-59
2022/04/11 09:28:24;;;;;;;4.57;1.67;;;;;;;9.53;50.38;95587.16;4344098;32;20290;-55
2022/04/11 09:30:50;;;;;;;2.10;1.90;;;;;;;9.58;49.24;95598.47;4321226;32;20293;-50
2022/04/11 09:33:17;;;;;;;1.80;1.70;;;;;;;9.57;50.16;95599.53;4360047;32;20403;-56
2022/04/11 09:35:47;;;;;;;2.17;2.07;;;;;;;9.50;48.86;95591.16;4325361;32;21623;-57
2022/04/11 09:38:14;;;;;;;5.77;1.87;;;;;;;9.44;48.49;95602.84;4356149;32;20293;-56
2022/04/11 09:40:56;;;;;;;2.30;2.10;;;;;;;9.54;48.95;95600.12;4311934;32;20338;-56
2022/04/11 09:43:31;;;;;;;2.30;2.10;;;;;;;9.77;48.14;95595.87;4344141;32;20339;-65
2022/04/11 09:46:05;;;;;;;2.23;2.13;;;;;;;9.87;49.98;95601.09;4339203;32;20301;-58
2022/04/11 09:48:35;;;;;;;3.27;1.60;;;;;;;10.03;48.10;95598.28;4352093;32;20362;-56
2022/04/11 09:51:09;;;;;;;1.90;1.43;;;;;;;10.19;48.67;95597.84;4323878;32;20383;-55
2022/04/11 09:53:36;;;;;;;1.57;1.47;;;;;;;10.21;45.55;95590.38;4328367;32;20189;-54
2022/04/11 09:56:11;;;;;;;2.30;1.53;;;;;;;10.30;46.08;95588.69;4336618;32;20325;-58
2022/04/11 09:58:41;;;;;;;1.63;1.53;;;;;;;10.30;45.84;95591.34;4345032;32;20302;-57
2022/04/11 10:01:12;;;;;;;1.70;1.60;;;;;;;10.49;45.47;95595.87;4359360;32;20282;-55
2022/04/11 10:03:41;;;;;;;3.23;1.70;;;;;;;10.59;47.02;95598.41;4344554;32;20288;-58
2022/04/11 10:06:08;;;;;;;1.10;1.10;;;;;;;10.63;46.40;95599.41;4337395;32;20300;-55
2022/04/11 10:08:35;;;;;;;2.17;1.40;;;;;;;10.69;45.44;95590.31;4312716;32;20214;-56
2022/04/11 10:11:09;;;;;;;1.50;1.40;;;;;;;10.83;45.10;95579.75;4344240;32;20311;-53
2022/04/11 10:13:37;;;;;;;1.60;1.50;;;;;;;10.89;43.96;95584.72;4328863;32;20279;-58
2022/04/11 10:16:09;;;;;;;1.40;1.30;;;;;;;10.77;43.91;95580.91;4343142;32;20199;-58
2022/04/11 10:18:35;;;;;;;1.40;1.30;;;;;;;10.81;43.69;95580.03;4359137;32;20216;-54
2022/04/11 10:21:10;;;;;;;1.27;1.27;;;;;;;10.89;42.77;95575.94;4345407;32;20212;-56
2022/04/11 10:23:59;;;;;;;2.47;1.57;;;;;;;10.69;44.08;95574.38;4339882;32;20192;-57
2022/04/11 10:26:40;;;;;;;1.70;1.57;;;;;;;10.68;45.72;95570.16;4361057;32;20203;-57
2022/04/11 10:29:31;;;;;;;1.83;1.73;;;;;;;10.99;45.80;95571.28;4324760;32;20268;-57
2022/04/11 10:32:13;;;;;;;2.17;1.70;;;;;;;11.02;45.66;95576.00;4326717;32;20212;-45
2022/04/11 10:35:00;;;;;;;4.73;2.73;;;;;;;11.68;47.91;95558.94;4332576;32;20247;-43
2022/04/11 10:37:44;;;;;;;2.20;1.97;;;;;;;13.17;53.38;95557.47;4318785;32;20244;-54
2022/04/11 10:40:16;;;;;;;4.27;1.73;;;;;;;14.25;43.83;95563.16;4310536;33;20190;-43
2022/04/11 10:43:15;;;;;;;2.60;1.70;;;;;;;14.78;41.39;95557.59;4344434;32;20216;-44
2022/04/11 10:45:56;;;;;;;2.53;1.83;;;;;;;15.39;41.48;95557.56;4335723;32;20252;-42
2022/04/11 10:48:55;;;;;;;2.33;2.07;;;;;;;15.60;38.66;95553.12;4326271;32;20217;-44
2022/04/11 10:51:21;;;;;;;4.60;1.70;;;;;;;15.31;39.14;95553.03;4359292;32;20356;-41
2022/04/11 10:54:21;;;;;;;3.50;1.47;;;;;;;15.28;38.76;95542.97;4331775;32;20193;-41
2022/04/11 10:56:56;;;;;;;6.10;2.23;;;;;;;15.37;38.88;95541.84;4345602;32;20256;-42
2022/04/11 10:59:50;;;;;;;5.60;4.40;;;;;;;15.95;44.35;95531.62;4301632;32;20243;-42
2022/04/11 11:02:16;;;;;;;4.77;2.50;;;;;;;16.52;42.77;95539.19;4343305;32;20219;-41
2022/04/11 11:04:45;;;;;;;2.07;1.80;;;;;;;16.23;39.96;95527.37;4369470;32;20264;-43
2022/04/11 11:07:30;;;;;;;1.57;1.40;;;;;;;16.45;39.99;95524.41;4347256;32;20226;-45
2022/04/11 11:09:59;;;;;;;2.10;1.70;;;;;;;16.53;38.11;95525.47;4354720;32;20211;-42
2022/04/11 11:12:26;;;;;;;2.63;1.47;;;;;;;16.31;35.73;95513.16;4348852;32;20182;-41
2022/04/11 11:14:56;;;;;;;3.00;1.90;;;;;;;16.57;40.42;95518.34;4363128;32;20199;-42
2022/04/11 11:17:59;;;;;;;1.70;1.60;;;;;;;16.83;41.07;95507.47;4362585;32;20185;-42
2022/04/11 11:20:34;;;;;;;1.50;1.40;;;;;;;16.60;36.96;95512.34;4324719;32;20237;-42
2022/04/11 11:23:35;;;;;;;3.00;1.30;;;;;;;16.55;36.39;95506.38;4325949;32;20189;-44
2022/04/11 11:26:49;;;;;;;1.47;1.30;;;;;;;16.39;37.16;95498.94;4320849;32;20228;-41
2022/04/11 11:29:31;;;;;;;1.50;1.40;;;;;;;16.25;39.04;95503.72;4293000;32;20208;-42
2022/04/11 11:32:01;;;;;;;1.40;1.13;;;;;;;16.09;37.40;95497.37;4352050;32;20196;-41
2022/04/11 11:34:30;;;;;;;1.60;1.50;;;;;;;16.09;39.05;95486.69;4366462;32;20208;-45
2022/04/11 11:37:02;;;;;;;1.03;0.97;;;;;;;16.03;35.47;95486.06;4355643;32;20227;-41
2022/04/11 11:39:30;;;;;;;3.00;1.27;;;;;;;15.82;38.03;95483.34;4349976;32;20203;-41
2022/04/11 11:42:04;;;;;;;1.47;1.17;;;;;;;15.72;37.64;95485.59;4342899;32;20203;-44
2022/04/11 11:44:32;;;;;;;1.10;1.00;;;;;;;15.79;39.79;95485.91;4357103;32;20185;-43
2022/04/11 11:47:03;;;;;;;3.13;1.10;;;;;;;15.92;36.76;95484.09;4362855;32;20239;-45